Time;durP1;ratioP1;P1;durP2;ratioP2;P2;SDS_P1;SDS_P2;PMS_P1;PMS_P2;Temp;Humidity;BMP_temperature;BMP_pressure;BME280_temperature;BME280_humidity;BME280_pressure;Samples;Min_cycle;Max_cycle;Signal;HPM_P1;HPM_P2
2020/12/18 00:01:55;;;;;;;12.87;7.80;;;5.00;99.90;;;;;;5054533;28;20189;-65
2020/12/18 00:04:21;;;;;;;11.60;7.60;;;5.00;99.90;;;;;;5055002;28;20202;-65
2020/12/18 00:06:47;;;;;;;13.70;8.40;;;5.00;99.90;;;;;;5054781;28;20656;-65
2020/12/18 00:09:12;;;;;;;14.23;7.83;;;4.90;99.90;;;;;;5054126;28;20211;-65
2020/12/18 00:11:38;;;;;;;13.03;7.93;;;4.90;99.90;;;;;;5054447;28;20181;-66
2020/12/18 00:14:03;;;;;;;13.23;7.57;;;4.90;99.90;;;;;;5055134;28;20175;-66
2020/12/18 00:16:32;;;;;;;17.03;8.30;;;4.80;99.90;;;;;;5054753;28;20309;-65
2020/12/18 00:18:57;;;;;;;15.20;8.40;;;4.80;99.90;;;;;;5054941;28;20563;-64
2020/12/18 00:21:23;;;;;;;9.43;7.40;;;4.80;99.90;;;;;;5054271;28;20179;-64
2020/12/18 00:23:50;;;;;;;14.63;8.23;;;4.80;99.90;;;;;;5054289;28;20209;-66
2020/12/18 00:26:17;;;;;;;15.10;7.20;;;4.80;99.90;;;;;;5054564;28;20174;-65
2020/12/18 00:28:43;;;;;;;16.50;7.80;;;4.70;99.90;;;;;;5054577;28;20562;-65
2020/12/18 00:31:08;;;;;;;18.60;8.43;;;4.80;99.90;;;;;;5054237;28;20178;-65
2020/12/18 00:33:34;;;;;;;16.27;7.87;;;4.80;99.90;;;;;;5054567;28;20175;-65
2020/12/18 00:36:00;;;;;;;12.87;7.27;;;4.80;99.90;;;;;;5054147;28;20717;-65
2020/12/18 00:38:25;;;;;;;13.53;8.17;;;4.80;99.90;;;;;;5054444;28;20285;-65
2020/12/18 00:40:51;;;;;;;14.30;7.63;;;4.80;99.90;;;;;;5053851;28;20644;-66
2020/12/18 00:43:17;;;;;;;14.03;7.47;;;4.70;99.90;;;;;;5054289;28;20248;-65
2020/12/18 00:45:45;;;;;;;15.97;6.70;;;4.70;99.90;;;;;;5054215;28;20659;-65
2020/12/18 00:48:12;;;;;;;14.33;7.37;;;4.70;99.90;;;;;;5053870;28;20201;-65
2020/12/18 00:50:38;;;;;;;8.40;6.13;;;4.70;99.90;;;;;;5053351;28;20202;-64
2020/12/18 00:53:07;;;;;;;11.40;6.73;;;4.70;99.90;;;;;;5052691;28;20586;-65
2020/12/18 00:55:33;;;;;;;14.20;7.37;;;4.70;99.90;;;;;;5054221;28;20220;-65
2020/12/18 00:57:59;;;;;;;9.30;6.23;;;4.70;99.90;;;;;;5053729;28;20202;-65
2020/12/18 01:00:24;;;;;;;7.73;6.50;;;4.70;99.90;;;;;;5053932;28;20178;-65
2020/12/18 01:02:50;;;;;;;8.80;6.33;;;4.70;99.90;;;;;;5053737;28;20266;-65
2020/12/18 01:05:16;;;;;;;9.03;6.13;;;4.70;99.90;;;;;;5053397;28;20242;-65
2020/12/18 01:07:41;;;;;;;10.53;6.20;;;4.70;99.90;;;;;;5052403;28;20195;-65
2020/12/18 01:10:07;;;;;;;9.60;6.97;;;4.80;99.90;;;;;;5052449;28;20236;-65
2020/12/18 01:12:33;;;;;;;11.23;6.30;;;4.80;99.90;;;;;;5053804;28;20202;-65
2020/12/18 01:14:58;;;;;;;9.83;6.77;;;4.80;99.90;;;;;;5053662;28;20186;-64
2020/12/18 01:17:24;;;;;;;10.17;5.90;;;4.80;99.90;;;;;;5053778;28;20754;-64
2020/12/18 01:19:49;;;;;;;8.37;6.53;;;4.80;99.90;;;;;;5053393;28;20228;-66
2020/12/18 01:22:15;;;;;;;7.53;5.90;;;4.80;99.90;;;;;;5053421;28;20593;-65
2020/12/18 01:24:40;;;;;;;12.27;6.57;;;4.70;99.90;;;;;;5053374;28;20171;-65
2020/12/18 01:27:06;;;;;;;8.73;6.33;;;4.70;99.90;;;;;;5053856;28;20191;-65
2020/12/18 01:29:32;;;;;;;12.10;5.87;;;4.70;99.90;;;;;;5054125;28;20716;-65
2020/12/18 01:31:57;;;;;;;13.40;6.60;;;4.60;99.90;;;;;;5033200;28;20589;-64
2020/12/18 01:34:23;;;;;;;15.73;6.90;;;4.50;99.90;;;;;;5033565;28;20458;-64
2020/12/18 01:36:48;;;;;;;10.47;6.70;;;4.50;99.90;;;;;;5051976;28;20187;-65
2020/12/18 01:39:14;;;;;;;8.90;6.80;;;4.40;99.90;;;;;;5052996;28;20234;-64
2020/12/18 01:41:40;;;;;;;8.40;6.63;;;4.40;99.90;;;;;;5053069;28;20178;-65
2020/12/18 01:44:05;;;;;;;13.27;6.50;;;4.30;99.90;;;;;;5053000;28;20231;-65
2020/12/18 01:46:32;;;;;;;12.30;7.17;;;4.30;99.90;;;;;;5053172;28;20541;-65
2020/12/18 01:48:58;;;;;;;9.77;6.47;;;4.30;99.90;;;;;;5052832;28;20222;-65
2020/12/18 01:51:24;;;;;;;13.60;7.47;;;4.30;99.90;;;;;;5052957;28;20167;-66
2020/12/18 01:53:51;;;;;;;10.43;7.07;;;4.30;99.90;;;;;;5051436;28;20673;-65
2020/12/18 01:56:18;;;;;;;11.37;6.67;;;4.30;99.90;;;;;;5053195;28;20175;-65
2020/12/18 01:58:45;;;;;;;15.87;7.63;;;4.30;99.90;;;;;;5052502;28;20195;-64
2020/12/18 02:01:11;;;;;;;13.47;8.50;;;4.30;99.90;;;;;;5052219;28;20528;-64
2020/12/18 02:03:37;;;;;;;12.80;8.07;;;4.20;99.90;;;;;;5052810;28;20190;-64
2020/12/18 02:06:25;;;;;;;15.10;7.00;;;4.20;99.90;;;;;;5052588;28;20184;-64
2020/12/18 02:08:51;;;;;;;15.27;8.27;;;4.30;99.90;;;;;;5052582;28;20285;-65
2020/12/18 02:11:22;;;;;;;15.00;9.33;;;4.30;99.90;;;;;;5052202;28;20738;-65
2020/12/18 02:13:50;;;;;;;20.10;8.27;;;4.30;99.90;;;;;;5051267;28;20229;-65
2020/12/18 02:16:16;;;;;;;15.07;8.90;;;4.40;99.90;;;;;;5052472;28;20175;-65
2020/12/18 02:18:43;;;;;;;16.40;9.47;;;4.40;99.90;;;;;;5052344;28;20191;-65
2020/12/18 02:21:08;;;;;;;17.50;9.27;;;4.40;99.90;;;;;;5052053;28;20624;-64
2020/12/18 02:23:41;;;;;;;15.53;9.40;;;4.40;99.90;;;;;;5052728;28;20226;-65
2020/12/18 02:26:09;;;;;;;15.07;9.27;;;4.40;99.90;;;;;;5052217;28;20171;-64
2020/12/18 02:28:40;;;;;;;15.97;9.33;;;4.40;99.90;;;;;;5052279;28;20244;-64
2020/12/18 02:31:07;;;;;;;15.57;9.63;;;4.40;99.90;;;;;;5051921;28;20174;-64
2020/12/18 02:33:33;;;;;;;20.00;10.40;;;4.40;99.90;;;;;;5052411;28;20167;-64
2020/12/18 02:36:03;;;;;;;14.70;9.83;;;4.40;99.90;;;;;;5051851;28;20182;-64
2020/12/18 02:38:29;;;;;;;15.83;9.87;;;4.30;99.90;;;;;;5052093;28;20270;-64
2020/12/18 02:40:55;;;;;;;14.10;9.83;;;4.30;99.90;;;;;;5051591;28;20591;-64
2020/12/18 02:43:21;;;;;;;19.17;9.50;;;4.30;99.90;;;;;;5052107;28;20248;-64
2020/12/18 02:45:48;;;;;;;13.67;9.37;;;4.30;99.90;;;;;;5051657;28;20179;-64
2020/12/18 02:48:14;;;;;;;15.30;10.03;;;4.20;99.90;;;;;;5051938;28;20191;-65
2020/12/18 02:50:40;;;;;;;15.93;9.67;;;4.30;99.90;;;;;;5051365;28;20170;-64
2020/12/18 02:53:19;;;;;;;18.83;11.30;;;4.20;99.90;;;;;;5052242;28;20205;-64
2020/12/18 02:55:46;;;;;;;16.07;10.40;;;4.20;99.90;;;;;;5051521;28;20174;-65
2020/12/18 02:58:12;;;;;;;21.80;11.37;;;4.20;99.90;;;;;;5051756;28;20194;-64
2020/12/18 03:00:39;;;;;;;15.87;10.90;;;4.20;99.90;;;;;;5050948;28;20194;-65
2020/12/18 03:03:06;;;;;;;18.03;10.80;;;4.20;99.90;;;;;;5050604;28;20210;-64
2020/12/18 03:05:32;;;;;;;22.07;11.73;;;4.20;99.90;;;;;;5051635;28;20177;-65
2020/12/18 03:07:58;;;;;;;16.37;10.77;;;4.20;99.90;;;;;;5051459;28;20268;-64
2020/12/18 03:10:24;;;;;;;20.33;10.73;;;4.20;99.90;;;;;;5051223;28;20178;-64
2020/12/18 03:12:49;;;;;;;15.63;10.90;;;4.10;99.90;;;;;;5050969;28;20577;-65
2020/12/18 03:15:15;;;;;;;15.87;10.67;;;4.20;99.90;;;;;;5051472;28;20233;-65
2020/12/18 03:17:41;;;;;;;23.27;10.23;;;4.20;99.90;;;;;;5051531;28;20277;-65
2020/12/18 03:20:06;;;;;;;22.87;11.63;;;4.10;99.90;;;;;;5051005;28;20236;-64
2020/12/18 03:22:32;;;;;;;24.53;12.03;;;4.10;99.90;;;;;;5051507;28;20548;-65
2020/12/18 03:24:59;;;;;;;21.40;10.77;;;4.10;99.90;;;;;;5051274;28;20183;-65
2020/12/18 03:27:25;;;;;;;16.20;10.50;;;4.10;99.90;;;;;;5051347;28;20163;-65
2020/12/18 03:29:51;;;;;;;18.47;10.90;;;4.10;99.90;;;;;;5051024;28;20526;-65
2020/12/18 03:32:16;;;;;;;18.97;11.50;;;4.10;99.90;;;;;;5051553;28;20170;-65
2020/12/18 03:34:42;;;;;;;17.40;9.70;;;4.10;99.90;;;;;;5051135;28;20167;-64
2020/12/18 03:37:07;;;;;;;18.20;10.97;;;4.10;99.90;;;;;;5051449;28;20179;-64
2020/12/18 03:39:34;;;;;;;21.00;11.03;;;4.10;99.90;;;;;;5051059;28;20293;-65
2020/12/18 03:42:00;;;;;;;16.40;10.67;;;4.10;99.90;;;;;;5050974;28;20171;-64
2020/12/18 03:44:25;;;;;;;20.20;11.13;;;4.10;99.90;;;;;;5051073;28;20202;-64
2020/12/18 03:46:51;;;;;;;21.03;10.87;;;4.10;99.90;;;;;;5051142;28;20167;-65
2020/12/18 03:49:17;;;;;;;20.00;11.40;;;4.10;99.90;;;;;;5051042;28;20199;-64
2020/12/18 03:51:42;;;;;;;20.13;10.30;;;4.10;99.90;;;;;;5050956;28;20289;-64
2020/12/18 03:54:08;;;;;;;18.13;10.83;;;4.10;99.90;;;;;;5051018;28;20206;-64
2020/12/18 03:56:34;;;;;;;17.87;10.90;;;4.10;99.90;;;;;;5051113;28;20167;-65
2020/12/18 03:58:59;;;;;;;16.57;10.30;;;4.10;99.90;;;;;;5050837;28;20567;-65
2020/12/18 04:01:25;;;;;;;21.63;11.37;;;4.10;99.90;;;;;;5050713;28;20179;-64
2020/12/18 04:03:50;;;;;;;24.13;11.93;;;4.10;99.90;;;;;;5050899;28;20198;-65
2020/12/18 04:06:16;;;;;;;21.87;11.30;;;4.10;99.90;;;;;;5051220;28;20632;-64
2020/12/18 04:08:42;;;;;;;19.70;10.87;;;4.10;99.90;;;;;;5050710;28;20239;-65
2020/12/18 04:11:08;;;;;;;19.63;10.87;;;4.10;99.90;;;;;;5050634;28;20206;-64
2020/12/18 04:13:34;;;;;;;18.37;10.83;;;4.10;99.90;;;;;;5050954;28;20179;-65
2020/12/18 04:15:59;;;;;;;15.20;10.43;;;4.10;99.90;;;;;;5050727;28;20695;-64
2020/12/18 04:18:25;;;;;;;18.27;11.33;;;4.10;99.90;;;;;;5050896;28;20214;-64
2020/12/18 04:20:51;;;;;;;19.00;11.33;;;4.10;99.90;;;;;;5050311;28;20649;-65
2020/12/18 04:23:16;;;;;;;18.80;11.50;;;4.10;99.90;;;;;;5050937;28;20206;-65
2020/12/18 04:25:42;;;;;;;15.97;10.90;;;4.10;99.90;;;;;;5053907;28;20250;-64
2020/12/18 04:28:07;;;;;;;16.70;10.87;;;4.10;99.90;;;;;;5054551;28;20187;-64
2020/12/18 04:30:33;;;;;;;18.93;11.23;;;4.10;99.90;;;;;;5054084;28;20546;-64
2020/12/18 04:32:59;;;;;;;18.03;11.57;;;4.10;99.90;;;;;;5054559;28;20187;-65
2020/12/18 04:35:25;;;;;;;19.10;11.17;;;4.10;99.90;;;;;;5054381;28;20183;-64
2020/12/18 04:37:50;;;;;;;17.57;10.50;;;4.10;99.90;;;;;;5054282;28;20202;-65
2020/12/18 04:40:16;;;;;;;18.70;12.47;;;4.10;99.90;;;;;;5054028;28;20608;-64
2020/12/18 04:42:42;;;;;;;18.03;11.20;;;4.00;99.90;;;;;;5054204;28;20332;-64
2020/12/18 04:45:08;;;;;;;18.20;11.83;;;4.00;99.90;;;;;;5054268;28;20183;-64
2020/12/18 04:47:40;;;;;;;16.90;11.47;;;4.00;99.90;;;;;;5054063;28;20178;-64
2020/12/18 04:50:07;;;;;;;18.33;12.10;;;4.10;99.90;;;;;;5054185;28;20170;-64
2020/12/18 04:52:32;;;;;;;20.03;11.90;;;4.00;99.90;;;;;;5053953;28;20558;-65
2020/12/18 04:54:59;;;;;;;27.37;12.33;;;4.00;99.90;;;;;;5054174;28;20186;-64
2020/12/18 04:57:28;;;;;;;20.77;11.80;;;4.00;99.90;;;;;;5053850;28;20178;-65
2020/12/18 04:59:54;;;;;;;22.40;11.87;;;4.00;99.90;;;;;;5053824;28;20667;-65
2020/12/18 05:02:29;;;;;;;15.97;11.37;;;4.00;99.90;;;;;;5053830;28;20175;-64
2020/12/18 05:04:56;;;;;;;20.57;12.60;;;3.90;99.90;;;;;;5053963;28;20173;-65
2020/12/18 05:07:22;;;;;;;18.80;12.30;;;3.90;99.90;;;;;;5053736;28;20163;-65
2020/12/18 05:09:52;;;;;;;18.13;10.83;;;3.90;99.90;;;;;;5053143;28;20686;-65
2020/12/18 05:12:17;;;;;;;23.27;11.70;;;3.90;99.90;;;;;;5053758;28;20183;-64
2020/12/18 05:14:43;;;;;;;18.87;10.97;;;3.90;99.90;;;;;;5053393;28;20177;-65
2020/12/18 05:17:10;;;;;;;17.37;11.40;;;3.90;99.90;;;;;;5053741;28;20644;-65
2020/12/18 05:19:37;;;;;;;17.63;10.87;;;3.80;99.90;;;;;;5053703;28;20675;-64
2020/12/18 05:22:05;;;;;;;21.40;10.43;;;3.80;99.90;;;;;;5053131;28;20197;-65
2020/12/18 05:24:31;;;;;;;19.53;10.20;;;3.90;99.90;;;;;;5053572;28;20683;-64
2020/12/18 05:26:59;;;;;;;20.67;9.27;;;3.90;99.90;;;;;;5053189;28;20214;-65
2020/12/18 05:29:26;;;;;;;21.40;8.80;;;3.90;99.90;;;;;;5053408;28;20189;-65
2020/12/18 05:31:54;;;;;;;25.97;10.10;;;3.90;99.90;;;;;;5052631;28;20266;-65
2020/12/18 05:34:20;;;;;;;13.43;8.90;;;3.90;99.90;;;;;;5053799;28;20171;-64
2020/12/18 05:36:46;;;;;;;14.83;9.77;;;4.00;99.90;;;;;;5052549;28;20285;-65
2020/12/18 05:39:13;;;;;;;15.17;10.30;;;4.00;99.90;;;;;;5053303;28;20183;-65
2020/12/18 05:41:43;;;;;;;17.27;9.77;;;4.00;99.90;;;;;;5052510;28;20753;-65
2020/12/18 05:44:09;;;;;;;19.17;8.87;;;4.00;99.90;;;;;;5052848;28;20248;-64
2020/12/18 05:46:38;;;;;;;15.83;8.77;;;4.00;99.90;;;;;;5052974;28;20537;-65
2020/12/18 05:49:08;;;;;;;20.23;9.07;;;4.10;99.90;;;;;;5052808;28;20294;-65
2020/12/18 05:51:33;;;;;;;21.10;9.43;;;4.10;99.90;;;;;;5052899;28;20167;-65
2020/12/18 05:54:16;;;;;;;16.10;8.03;;;4.20;99.90;;;;;;5052794;28;20186;-65
2020/12/18 05:56:44;;;;;;;20.10;8.93;;;4.20;99.90;;;;;;5052863;28;20167;-65
2020/12/18 05:59:12;;;;;;;14.70;8.60;;;4.20;99.90;;;;;;5052656;28;20206;-65
2020/12/18 06:01:40;;;;;;;11.93;8.57;;;4.20;99.90;;;;;;5052536;28;20179;-65
2020/12/18 06:04:24;;;;;;;16.50;8.47;;;4.20;99.90;;;;;;5052490;28;20210;-64
2020/12/18 06:06:56;;;;;;;17.43;9.03;;;4.30;99.90;;;;;;5052653;28;20175;-65
2020/12/18 06:09:23;;;;;;;15.87;8.30;;;4.30;99.90;;;;;;5052330;28;20222;-65
2020/12/18 06:11:49;;;;;;;19.83;8.90;;;4.30;99.90;;;;;;5052180;28;20202;-65
2020/12/18 06:14:17;;;;;;;10.63;7.60;;;4.30;99.90;;;;;;5052649;28;20178;-64
2020/12/18 06:16:48;;;;;;;14.93;9.47;;;4.30;99.90;;;;;;5052223;28;20174;-65
2020/12/18 06:19:20;;;;;;;15.87;7.87;;;4.40;99.90;;;;;;5052745;28;20191;-65
2020/12/18 06:21:58;;;;;;;15.60;9.40;;;4.40;99.90;;;;;;5052007;28;20190;-65
2020/12/18 06:24:24;;;;;;;10.10;8.13;;;4.40;99.90;;;;;;5052817;28;20603;-64
2020/12/18 06:26:57;;;;;;;9.57;7.03;;;4.40;99.90;;;;;;5052202;28;20178;-65
2020/12/18 06:29:25;;;;;;;16.87;9.77;;;4.50;99.90;;;;;;5051217;28;20187;-65
2020/12/18 06:31:51;;;;;;;16.27;9.20;;;4.50;99.90;;;;;;5051839;28;20191;-65
2020/12/18 06:34:28;;;;;;;23.53;9.43;;;4.50;99.90;;;;;;5052350;28;20174;-65
2020/12/18 06:36:57;;;;;;;13.67;7.97;;;4.50;99.90;;;;;;5051976;28;20255;-65
2020/12/18 06:39:30;;;;;;;12.90;8.43;;;4.50;99.90;;;;;;5052024;28;20195;-65
2020/12/18 06:42:16;;;;;;;17.33;8.73;;;4.50;99.90;;;;;;5036036;28;20203;-65
2020/12/18 06:44:49;;;;;;;15.47;9.13;;;4.50;99.90;;;;;;5051807;28;20563;-65
2020/12/18 06:47:24;;;;;;;12.07;7.73;;;4.40;99.90;;;;;;5051393;28;20167;-65
2020/12/18 06:49:59;;;;;;;14.40;7.57;;;4.40;99.90;;;;;;5051741;28;20181;-64
2020/12/18 06:52:40;;;;;;;18.27;8.67;;;4.50;99.90;;;;;;5052176;28;20180;-64
2020/12/18 06:55:07;;;;;;;16.30;8.47;;;4.50;99.90;;;;;;5036597;28;20175;-65
2020/12/18 06:57:33;;;;;;;15.17;9.53;;;4.50;99.90;;;;;;5051704;28;20224;-64
2020/12/18 07:00:21;;;;;;;10.87;8.23;;;4.50;99.90;;;;;;5051070;28;20217;-65
2020/12/18 07:02:47;;;;;;;18.90;9.27;;;4.50;99.90;;;;;;5051742;28;20549;-65
2020/12/18 07:05:35;;;;;;;19.23;10.00;;;4.50;99.90;;;;;;5051291;28;20698;-65
2020/12/18 07:08:13;;;;;;;14.37;9.30;;;4.50;99.90;;;;;;5051310;28;20214;-65
2020/12/18 07:10:46;;;;;;;14.17;9.27;;;4.50;99.90;;;;;;5051116;28;20174;-64
2020/12/18 07:13:14;;;;;;;21.00;8.83;;;4.60;99.90;;;;;;5051411;28;20269;-65
2020/12/18 07:15:42;;;;;;;14.00;8.23;;;4.60;99.90;;;;;;5051899;28;20674;-65
2020/12/18 07:18:22;;;;;;;17.17;8.90;;;4.60;99.90;;;;;;5051376;28;20594;-65
2020/12/18 07:21:09;;;;;;;12.03;7.87;;;4.70;99.90;;;;;;5050948;28;20177;-65
2020/12/18 07:23:38;;;;;;;14.27;8.90;;;4.70;99.90;;;;;;5051610;28;20216;-64
2020/12/18 07:26:05;;;;;;;12.27;7.80;;;4.70;99.90;;;;;;5051497;28;20205;-64
2020/12/18 07:28:32;;;;;;;14.73;8.03;;;4.80;99.90;;;;;;5051199;28;20819;-64
2020/12/18 07:30:59;;;;;;;18.53;9.37;;;4.80;99.90;;;;;;5050857;28;20171;-65
2020/12/18 07:33:25;;;;;;;18.63;8.93;;;4.80;99.90;;;;;;5051259;28;20181;-64
2020/12/18 07:35:55;;;;;;;20.00;9.23;;;4.80;99.90;;;;;;5050986;28;20221;-63
2020/12/18 07:38:34;;;;;;;15.27;8.70;;;4.80;99.90;;;;;;5050989;28;20190;-64
2020/12/18 07:41:05;;;;;;;19.93;8.77;;;4.90;99.90;;;;;;5050673;28;20592;-62
2020/12/18 07:43:32;;;;;;;15.33;9.23;;;4.90;99.90;;;;;;5051627;28;20289;-65
2020/12/18 07:46:01;;;;;;;14.37;8.87;;;4.90;99.90;;;;;;5051267;28;20197;-64
2020/12/18 07:48:28;;;;;;;17.40;8.80;;;4.90;99.90;;;;;;5051287;28;20194;-65
2020/12/18 07:51:07;;;;;;;20.63;8.67;;;5.00;99.90;;;;;;5050398;28;20178;-65
2020/12/18 07:53:35;;;;;;;14.93;9.00;;;5.00;99.90;;;;;;5051185;28;20166;-65
2020/12/18 07:56:13;;;;;;;17.90;9.77;;;5.10;99.90;;;;;;5050791;28;20175;-65
2020/12/18 07:58:53;;;;;;;18.70;8.97;;;5.10;99.90;;;;;;5052221;28;20194;-65
2020/12/18 08:01:21;;;;;;;13.70;9.07;;;5.20;99.90;;;;;;5054876;28;20224;-65
2020/12/18 08:03:48;;;;;;;18.53;9.93;;;5.20;99.90;;;;;;5054472;28;20244;-65
2020/12/18 08:06:17;;;;;;;22.07;10.90;;;5.30;99.90;;;;;;5054990;28;20198;-65
2020/12/18 08:08:49;;;;;;;14.77;9.27;;;5.30;99.90;;;;;;5054178;28;20214;-65
2020/12/18 08:11:16;;;;;;;15.80;9.30;;;5.40;99.90;;;;;;5054652;28;20541;-64
2020/12/18 08:13:42;;;;;;;15.87;8.97;;;5.50;99.90;;;;;;5054636;28;20163;-65
2020/12/18 08:16:31;;;;;;;15.70;8.60;;;5.50;99.90;;;;;;5054700;28;20197;-65
2020/12/18 08:18:59;;;;;;;12.53;8.40;;;5.60;99.90;;;;;;5054346;28;20194;-65
2020/12/18 08:21:30;;;;;;;15.93;8.17;;;5.60;99.90;;;;;;5054511;28;20182;-64
2020/12/18 08:24:07;;;;;;;22.10;9.60;;;5.70;99.90;;;;;;5054412;28;20252;-65
2020/12/18 08:26:40;;;;;;;13.97;9.37;;;5.70;99.90;;;;;;5054932;28;20201;-64
2020/12/18 08:29:06;;;;;;;14.83;9.70;;;5.80;99.90;;;;;;5054261;28;20183;-64
2020/12/18 08:31:39;;;;;;;13.47;9.47;;;5.80;99.90;;;;;;5054350;28;20220;-65
2020/12/18 08:34:08;;;;;;;14.80;8.93;;;5.90;99.90;;;;;;5054458;28;20675;-65
2020/12/18 08:36:44;;;;;;;15.20;10.10;;;6.00;99.90;;;;;;5054431;28;20190;-65
2020/12/18 08:39:11;;;;;;;19.13;9.00;;;6.10;99.90;;;;;;5034451;28;20195;-65
2020/12/18 08:41:48;;;;;;;11.57;9.00;;;6.10;99.90;;;;;;5034119;28;20667;-65
2020/12/18 08:44:19;;;;;;;19.40;9.20;;;6.20;99.90;;;;;;5034513;28;20199;-65
2020/12/18 08:46:46;;;;;;;16.20;7.90;;;6.30;99.90;;;;;;5034093;28;20547;-65
2020/12/18 08:49:19;;;;;;;13.73;9.20;;;6.30;99.90;;;;;;5053383;28;20226;-65
2020/12/18 08:51:47;;;;;;;10.07;7.87;;;6.40;99.90;;;;;;5054076;28;20180;-65
2020/12/18 08:54:26;;;;;;;15.80;8.17;;;6.50;99.90;;;;;;5053905;28;20591;-65
2020/12/18 08:57:29;;;;;;;14.33;8.23;;;6.60;99.90;;;;;;5053935;28;20175;-64
2020/12/18 09:00:17;;;;;;;12.70;8.70;;;6.70;99.90;;;;;;5035356;28;20575;-65
2020/12/18 09:02:48;;;;;;;12.70;6.77;;;7.10;99.90;;;;;;5053795;28;20285;-66
2020/12/18 09:05:22;;;;;;;10.63;6.13;;;7.40;99.90;;;;;;5053768;28;20175;-65
2020/12/18 09:08:08;;;;;;;14.10;6.13;;;7.80;99.90;;;;;;5053566;28;20252;-65
2020/12/18 09:10:34;;;;;;;8.13;4.60;;;8.10;99.90;;;;;;5052522;28;20175;-65
2020/12/18 09:13:20;;;;;;;6.60;4.97;;;8.40;99.90;;;;;;5053651;28;20209;-65
2020/12/18 09:15:48;;;;;;;8.57;4.33;;;8.50;99.90;;;;;;5053677;28;20179;-66
2020/12/18 09:18:20;;;;;;;5.13;3.73;;;8.50;99.90;;;;;;5052850;28;20818;-66
2020/12/18 09:20:46;;;;;;;5.23;4.13;;;8.80;99.90;;;;;;5052828;28;20575;-66
2020/12/18 09:23:16;;;;;;;6.07;3.60;;;9.00;99.90;;;;;;5053490;28;20252;-66
2020/12/18 09:25:49;;;;;;;6.37;4.13;;;9.20;99.90;;;;;;5052650;28;20254;-65
2020/12/18 09:28:19;;;;;;;6.77;3.90;;;9.40;99.90;;;;;;5053328;28;20183;-65
2020/12/18 09:30:53;;;;;;;5.30;3.40;;;9.40;99.90;;;;;;5052648;28;20167;-65
2020/12/18 09:33:27;;;;;;;5.00;3.97;;;9.50;99.90;;;;;;5053508;28;20198;-64
2020/12/18 09:36:19;;;;;;;6.10;3.60;;;9.60;99.90;;;;;;5052771;28;20228;-65
2020/12/18 09:38:51;;;;;;;7.90;4.20;;;9.70;99.90;;;;;;5053073;28;20198;-65
2020/12/18 09:41:23;;;;;;;7.23;4.30;;;9.60;99.90;;;;;;5052696;28;20273;-65
2020/12/18 09:43:49;;;;;;;5.20;3.73;;;9.50;99.90;;;;;;5052983;28;20551;-65
2020/12/18 09:46:18;;;;;;;6.47;3.80;;;9.40;99.90;;;;;;5052754;28;20687;-65
2020/12/18 09:48:46;;;;;;;9.57;4.40;;;9.20;99.90;;;;;;5052811;28;20191;-65
2020/12/18 09:51:12;;;;;;;4.63;4.00;;;9.00;99.90;;;;;;5052665;28;20206;-66
2020/12/18 09:53:38;;;;;;;6.83;4.83;;;8.80;99.90;;;;;;5052582;28;20182;-66
2020/12/18 09:56:06;;;;;;;6.03;4.80;;;8.60;99.90;;;;;;5052681;28;20175;-66
2020/12/18 09:58:32;;;;;;;7.00;5.00;;;8.50;99.90;;;;;;5052569;28;20542;-66
2020/12/18 10:00:57;;;;;;;10.33;4.67;;;8.30;99.90;;;;;;5052294;28;20186;-66
2020/12/18 10:03:23;;;;;;;10.37;4.97;;;8.30;99.90;;;;;;5052458;28;20286;-66
2020/12/18 10:05:49;;;;;;;6.67;4.60;;;8.30;99.90;;;;;;5052703;28;20171;-66
2020/12/18 10:08:15;;;;;;;6.63;4.83;;;8.30;99.90;;;;;;5052206;28;20706;-66
2020/12/18 10:10:41;;;;;;;8.87;4.77;;;8.40;99.90;;;;;;5052458;28;20163;-65
2020/12/18 10:13:07;;;;;;;5.53;3.87;;;8.70;99.90;;;;;;5052133;28;20179;-66
2020/12/18 10:15:32;;;;;;;6.03;4.37;;;8.90;99.90;;;;;;5052573;28;20640;-66
2020/12/18 10:17:58;;;;;;;6.83;4.33;;;9.20;99.90;;;;;;5052363;28;20724;-66
2020/12/18 10:20:24;;;;;;;6.23;4.70;;;9.40;99.90;;;;;;5051693;28;20182;-65
2020/12/18 10:22:49;;;;;;;4.87;3.30;;;9.60;99.90;;;;;;5052023;28;20203;-66
2020/12/18 10:25:15;;;;;;;5.00;3.60;;;9.90;99.90;;;;;;5052406;28;20584;-66
2020/12/18 10:27:43;;;;;;;5.30;3.63;;;10.10;99.90;;;;;;5051763;28;20193;-66
2020/12/18 10:30:09;;;;;;;6.23;3.73;;;10.30;99.90;;;;;;5051969;28;20167;-66
2020/12/18 10:32:35;;;;;;;4.80;3.60;;;10.30;99.90;;;;;;5051956;28;20210;-65
2020/12/18 10:35:02;;;;;;;7.43;3.63;;;10.40;99.90;;;;;;5051967;28;20179;-65
2020/12/18 10:37:27;;;;;;;9.33;4.40;;;10.40;99.90;;;;;;5051786;28;20717;-66
2020/12/18 10:39:53;;;;;;;6.50;3.57;;;10.60;99.90;;;;;;5051754;28;20166;-66
2020/12/18 10:42:20;;;;;;;6.73;4.37;;;10.70;99.90;;;;;;5051797;28;20232;-66
2020/12/18 10:44:46;;;;;;;5.90;3.60;;;10.80;99.90;;;;;;5051983;28;20289;-66
2020/12/18 10:47:12;;;;;;;7.80;3.80;;;10.80;99.90;;;;;;5051615;28;20182;-66
2020/12/18 10:49:38;;;;;;;4.70;3.53;;;10.90;99.90;;;;;;5051903;28;20195;-66
2020/12/18 10:52:04;;;;;;;7.30;3.43;;;11.00;99.90;;;;;;5051624;28;20175;-66
2020/12/18 10:54:29;;;;;;;5.27;3.10;;;11.20;99.90;;;;;;5051874;28;20575;-66
2020/12/18 10:56:55;;;;;;;5.87;3.57;;;11.30;99.90;;;;;;5051543;28;20300;-65
2020/12/18 10:59:22;;;;;;;4.80;3.67;;;11.40;99.90;;;;;;5051476;28;20202;-65
2020/12/18 11:01:52;;;;;;;7.30;3.73;;;11.40;99.90;;;;;;5051276;28;20174;-66
2020/12/18 11:04:18;;;;;;;4.27;2.93;;;11.60;99.90;;;;;;5051192;28;20210;-66
2020/12/18 11:06:44;;;;;;;6.47;4.07;;;11.60;99.90;;;;;;5051519;28;20644;-65
2020/12/18 11:09:10;;;;;;;4.73;3.20;;;11.60;99.90;;;;;;5074819;22;20235;-65
2020/12/18 11:11:35;;;;;;;8.37;3.43;;;11.40;99.90;;;;;;5051333;28;20174;-63
2020/12/18 11:14:01;;;;;;;6.43;4.63;;;11.20;99.90;;;;;;5052417;28;20182;-63
2020/12/18 11:16:27;;;;;;;7.57;3.70;;;11.00;99.90;;;;;;5069631;28;20189;-62
2020/12/18 11:18:53;;;;;;;4.20;3.73;;;11.00;99.90;;;;;;5060679;28;20195;-62
2020/12/18 11:21:19;;;;;;;4.67;3.40;;;10.90;99.90;;;;;;5051179;28;20209;-63
2020/12/18 11:23:44;;;;;;;5.37;2.97;;;11.10;99.90;;;;;;5049895;28;20230;-64
2020/12/18 11:26:11;;;;;;;4.57;3.40;;;11.40;99.90;;;;;;5050969;28;20250;-63
2020/12/18 11:28:37;;;;;;;6.23;3.73;;;11.80;99.90;;;;;;5050859;28;20190;-62
2020/12/18 11:31:04;;;;;;;4.70;3.30;;;12.20;99.90;;;;;;5050866;28;20186;-62
2020/12/18 11:33:30;;;;;;;4.13;3.40;;;12.40;99.90;;;;;;5050602;28;20185;-63
2020/12/18 11:35:56;;;;;;;7.33;3.20;;;12.70;99.90;;;;;;5051015;28;20191;-63
2020/12/18 11:38:22;;;;;;;4.70;3.40;;;12.80;99.90;;;;;;5050830;28;20248;-63
2020/12/18 11:40:48;;;;;;;6.20;3.20;;;13.00;99.90;;;;;;5050901;28;20415;-63
2020/12/18 11:43:14;;;;;;;4.90;2.77;;;13.20;99.90;;;;;;5050663;28;20194;-63
2020/12/18 11:45:40;;;;;;;8.33;3.27;;;13.40;99.90;;;;;;5051086;28;20175;-62
2020/12/18 11:48:05;;;;;;;4.83;3.00;;;13.40;99.90;;;;;;5050767;28;20179;-63
2020/12/18 11:50:31;;;;;;;3.23;2.97;;;13.40;99.90;;;;;;5050853;28;20651;-62
2020/12/18 11:53:00;;;;;;;4.73;3.30;;;13.40;99.90;;;;;;5050750;28;20606;-62
2020/12/18 11:55:26;;;;;;;3.53;3.00;;;13.50;99.90;;;;;;5051350;28;20236;-63
2020/12/18 11:57:52;;;;;;;6.80;3.27;;;13.50;99.90;;;;;;5049652;28;20741;-63
2020/12/18 12:00:22;;;;;;;6.63;3.17;;;13.50;99.90;;;;;;5050777;28;20201;-63
2020/12/18 12:02:49;;;;;;;6.23;3.30;;;13.60;99.90;;;;;;5050544;28;20209;-63
2020/12/18 12:05:16;;;;;;;4.60;3.00;;;13.50;99.90;;;;;;5050997;28;20171;-64
2020/12/18 12:07:42;;;;;;;7.23;3.13;;;13.50;99.90;;;;;;5050477;28;20171;-63
2020/12/18 12:10:08;;;;;;;6.47;2.83;;;13.50;99.90;;;;;;5048477;28;20568;-63
2020/12/18 12:12:33;;;;;;;6.07;3.50;;;13.40;99.90;;;;;;5050511;28;20201;-63
2020/12/18 12:14:59;;;;;;;4.60;3.20;;;13.30;99.90;;;;;;5050778;28;20182;-62
2020/12/18 12:17:25;;;;;;;4.53;2.90;;;13.20;99.90;;;;;;5050453;28;20179;-64
2020/12/18 12:19:50;;;;;;;4.27;3.00;;;13.20;99.90;;;;;;5050671;28;20226;-62
2020/12/18 12:22:16;;;;;;;4.87;3.27;;;13.20;99.90;;;;;;5050335;28;20171;-63
2020/12/18 12:24:42;;;;;;;3.63;3.30;;;13.00;99.90;;;;;;5050627;28;20199;-63
2020/12/18 12:27:10;;;;;;;5.93;3.93;;;12.80;99.90;;;;;;5050513;28;20189;-64
2020/12/18 12:29:36;;;;;;;6.57;3.33;;;12.40;99.90;;;;;;5050636;28;20265;-62
2020/12/18 12:32:01;;;;;;;3.93;3.27;;;12.00;99.90;;;;;;5050045;28;20716;-63
2020/12/18 12:34:27;;;;;;;5.07;3.43;;;11.70;99.90;;;;;;5050623;28;20248;-64
2020/12/18 12:37:00;;;;;;;5.63;3.80;;;11.50;99.90;;;;;;5050311;28;20597;-63
2020/12/18 12:39:26;;;;;;;5.83;3.93;;;11.50;99.90;;;;;;5050838;28;20285;-63
2020/12/18 12:41:52;;;;;;;5.47;3.17;;;11.40;99.90;;;;;;5048815;28;20221;-62
2020/12/18 12:44:18;;;;;;;5.73;3.17;;;11.40;99.90;;;;;;5050501;28;20242;-63
2020/12/18 12:46:44;;;;;;;4.43;3.20;;;11.40;99.90;;;;;;5053700;28;20198;-62
2020/12/18 12:49:10;;;;;;;4.30;3.10;;;11.50;99.90;;;;;;5054154;28;20197;-64
2020/12/18 12:51:36;;;;;;;7.10;3.77;;;11.70;99.90;;;;;;5053528;28;20218;-63